Time;durP1;ratioP1;P1;durP2;ratioP2;P2;SDS_P1;SDS_P2;PMS_P1;PMS_P2;Temp;Humidity;BMP_temperature;BMP_pressure;BME280_temperature;BME280_humidity;BME280_pressure;Samples;Min_cycle;Max_cycle;Signal;HPM_P1;HPM_P2
2021/03/25 00:00:33;;;;;;;34.97;15.97;;;6.50;99.90;;;;;;5096870;28;20486;-68
2021/03/25 00:03:02;;;;;;;34.70;16.77;;;6.50;99.90;;;;;;5109975;28;20536;-68
2021/03/25 00:05:32;;;;;;;36.00;19.10;;;6.50;99.90;;;;;;5108930;28;20602;-67
2021/03/25 00:07:59;;;;;;;33.50;17.00;;;6.50;99.90;;;;;;5107728;28;20449;-68
2021/03/25 00:10:30;;;;;;;34.10;17.20;;;6.40;99.90;;;;;;5101662;28;20448;-64
2021/03/25 00:12:57;;;;;;;35.63;17.27;;;6.40;99.90;;;;;;5105952;28;20454;-65
2021/03/25 00:15:24;;;;;;;34.50;16.90;;;6.30;99.90;;;;;;5113302;28;20545;-66
2021/03/25 00:17:51;;;;;;;38.50;17.87;;;6.30;99.90;;;;;;5113861;27;20560;-66
2021/03/25 00:20:19;;;;;;;37.90;18.00;;;6.30;99.90;;;;;;5123278;27;20481;-66
2021/03/25 00:22:45;;;;;;;37.37;18.00;;;6.30;99.90;;;;;;5114734;27;20528;-66
2021/03/25 00:25:14;;;;;;;32.83;16.53;;;6.30;99.90;;;;;;5131868;27;20809;-66
2021/03/25 00:27:41;;;;;;;33.20;17.33;;;6.20;99.90;;;;;;5114325;27;20441;-67
2021/03/25 00:30:10;;;;;;;34.23;17.80;;;6.20;99.90;;;;;;5115546;28;20490;-68
2021/03/25 00:32:37;;;;;;;35.70;19.00;;;6.20;99.90;;;;;;5113457;28;20945;-66
2021/03/25 00:35:05;;;;;;;30.60;16.67;;;6.20;99.90;;;;;;5127061;27;20861;-68
2021/03/25 00:37:32;;;;;;;33.60;16.60;;;6.20;99.90;;;;;;5129968;27;20449;-66
2021/03/25 00:39:58;;;;;;;34.93;18.00;;;6.10;99.90;;;;;;5115804;27;20459;-67
2021/03/25 00:42:25;;;;;;;33.97;17.57;;;6.10;99.90;;;;;;5114155;28;20574;-67
2021/03/25 00:44:51;;;;;;;36.30;17.97;;;6.00;99.90;;;;;;5113498;27;21192;-68
2021/03/25 00:47:17;;;;;;;36.03;17.80;;;6.00;99.90;;;;;;5118924;27;20459;-66
2021/03/25 00:49:44;;;;;;;36.63;18.47;;;6.00;99.90;;;;;;5113565;27;20891;-66
2021/03/25 00:52:10;;;;;;;35.90;17.53;;;5.90;99.90;;;;;;5106247;28;20495;-67
2021/03/25 00:54:37;;;;;;;35.60;17.87;;;5.90;99.90;;;;;;5113223;28;20553;-66
2021/03/25 00:57:05;;;;;;;39.80;19.23;;;5.90;99.90;;;;;;5114435;28;20536;-66
2021/03/25 00:59:31;;;;;;;36.27;18.80;;;5.90;99.90;;;;;;5106298;28;20485;-68
2021/03/25 01:01:58;;;;;;;41.70;19.00;;;5.90;99.90;;;;;;5114655;28;20591;-66
2021/03/25 01:04:24;;;;;;;38.20;18.40;;;5.90;99.90;;;;;;5114140;28;20815;-68
2021/03/25 01:06:50;;;;;;;38.17;17.30;;;5.80;99.90;;;;;;5113566;28;20536;-67
2021/03/25 01:09:21;;;;;;;38.13;19.27;;;5.80;99.90;;;;;;5123021;27;20536;-66
2021/03/25 01:11:49;;;;;;;36.97;18.20;;;5.80;99.90;;;;;;5113777;28;20437;-66
2021/03/25 01:14:19;;;;;;;40.43;20.43;;;5.80;99.90;;;;;;5112769;28;20528;-65
2021/03/25 01:16:46;;;;;;;38.27;19.10;;;5.80;99.90;;;;;;5109975;28;20458;-67
2021/03/25 01:19:15;;;;;;;41.27;21.13;;;5.70;99.90;;;;;;5112439;28;20452;-66
2021/03/25 01:21:42;;;;;;;37.43;18.40;;;5.70;99.90;;;;;;5106803;28;21037;-66
2021/03/25 01:24:09;;;;;;;39.17;18.93;;;5.70;99.90;;;;;;5111701;28;20452;-66
2021/03/25 01:26:36;;;;;;;35.47;17.70;;;5.70;99.90;;;;;;5098995;28;20516;-66
2021/03/25 01:29:04;;;;;;;38.07;19.67;;;5.70;99.90;;;;;;5109126;28;20499;-67
2021/03/25 01:31:32;;;;;;;40.07;20.30;;;5.60;99.90;;;;;;5100729;28;20536;-66
2021/03/25 01:33:59;;;;;;;44.80;21.93;;;5.60;99.90;;;;;;5104589;28;20531;-69
2021/03/25 01:36:26;;;;;;;38.57;18.87;;;5.60;99.90;;;;;;5106650;28;20448;-67
2021/03/25 01:38:53;;;;;;;41.20;20.27;;;5.60;99.90;;;;;;5113557;28;20441;-67
2021/03/25 01:41:19;;;;;;;40.73;18.70;;;5.60;99.90;;;;;;5113922;28;20479;-67
2021/03/25 01:43:47;;;;;;;38.63;20.97;;;5.60;99.90;;;;;;5113755;28;20449;-67
2021/03/25 01:46:21;;;;;;;39.17;19.40;;;5.60;99.90;;;;;;5113150;28;20531;-69
2021/03/25 01:48:50;;;;;;;39.67;20.20;;;5.60;99.90;;;;;;5113124;28;20528;-66
2021/03/25 01:51:45;;;;;;;32.73;18.20;;;5.60;99.90;;;;;;5113215;28;20866;-67
2021/03/25 01:54:45;;;;;;;44.90;20.27;;;5.60;99.90;;;;;;5113032;28;20535;-66
2021/03/25 01:57:47;;;;;;;38.90;20.87;;;5.60;99.90;;;;;;5113596;28;20483;-67
2021/03/25 02:00:21;;;;;;;39.60;20.77;;;5.60;99.90;;;;;;5103357;28;20503;-66
2021/03/25 02:03:00;;;;;;;41.33;22.07;;;5.60;99.90;;;;;;5112260;28;20453;-67
2021/03/25 02:05:32;;;;;;;39.90;19.10;;;5.60;99.90;;;;;;5107961;28;20853;-67
2021/03/25 02:08:06;;;;;;;46.33;22.80;;;5.60;99.90;;;;;;5104313;28;20546;-66
2021/03/25 02:10:45;;;;;;;39.70;22.23;;;5.60;99.90;;;;;;5109395;28;20541;-68
2021/03/25 02:13:16;;;;;;;39.43;22.40;;;5.70;99.90;;;;;;5113267;27;20424;-68
2021/03/25 02:15:53;;;;;;;45.43;22.37;;;5.70;99.90;;;;;;5116376;27;20861;-70
2021/03/25 02:18:28;;;;;;;41.50;21.13;;;5.70;99.90;;;;;;5113569;28;20520;-67
2021/03/25 02:21:42;;;;;;;43.53;24.83;;;5.70;99.90;;;;;;5112829;28;20991;-68
2021/03/25 02:24:37;;;;;;;45.13;21.73;;;5.80;99.90;;;;;;5049771;28;20456;-68
2021/03/25 02:27:23;;;;;;;36.80;20.87;;;5.80;99.90;;;;;;5054038;28;20459;-67
2021/03/25 02:29:54;;;;;;;40.00;20.50;;;6.00;99.90;;;;;;5098220;28;20449;-68
2021/03/25 02:32:26;;;;;;;42.67;22.40;;;6.10;99.90;;;;;;5112810;28;20469;-67
2021/03/25 02:34:54;;;;;;;48.17;22.40;;;6.10;99.90;;;;;;5104083;28;20537;-67
2021/03/25 02:37:25;;;;;;;43.27;23.77;;;6.20;99.90;;;;;;5112133;28;20488;-66
2021/03/25 02:39:59;;;;;;;54.13;27.07;;;6.30;99.90;;;;;;5112827;28;20457;-66
2021/03/25 02:42:31;;;;;;;44.47;24.60;;;6.30;99.90;;;;;;5104002;28;21007;-67
2021/03/25 02:45:03;;;;;;;46.10;24.57;;;6.40;99.90;;;;;;5109319;28;20935;-68
2021/03/25 02:47:32;;;;;;;46.73;24.77;;;6.40;99.90;;;;;;5109983;28;20459;-67
2021/03/25 02:50:06;;;;;;;51.37;27.47;;;6.40;99.90;;;;;;5104188;28;20449;-67
2021/03/25 02:52:38;;;;;;;50.30;24.10;;;6.50;99.90;;;;;;5107990;28;20518;-69
2021/03/25 02:55:09;;;;;;;48.87;25.00;;;6.50;99.90;;;;;;5112408;28;20514;-66
2021/03/25 02:57:45;;;;;;;42.67;24.70;;;6.50;99.90;;;;;;5108280;28;20457;-67
2021/03/25 03:00:15;;;;;;;48.63;24.97;;;6.50;99.90;;;;;;5108199;28;20544;-67
2021/03/25 03:02:46;;;;;;;43.90;26.47;;;6.60;99.90;;;;;;5109010;28;20437;-67
2021/03/25 03:05:17;;;;;;;44.60;23.93;;;6.60;99.90;;;;;;5112070;28;20453;-68
2021/03/25 03:07:48;;;;;;;44.73;23.90;;;6.60;99.90;;;;;;5111657;28;20819;-67
2021/03/25 03:10:20;;;;;;;45.80;27.17;;;6.70;99.90;;;;;;5112154;28;20453;-67
2021/03/25 03:12:48;;;;;;;48.33;26.27;;;6.70;99.90;;;;;;5113557;28;20509;-68
2021/03/25 03:15:20;;;;;;;49.30;26.97;;;6.80;99.90;;;;;;5107993;28;20537;-66
2021/03/25 03:17:50;;;;;;;47.80;24.07;;;6.80;99.90;;;;;;5110319;28;20459;-68
2021/03/25 03:20:23;;;;;;;53.90;27.07;;;6.90;99.90;;;;;;5109484;28;20536;-67
2021/03/25 03:22:50;;;;;;;52.30;27.90;;;6.90;99.90;;;;;;5100948;28;20873;-65
2021/03/25 03:25:19;;;;;;;56.80;27.47;;;6.90;99.90;;;;;;5110059;28;20503;-69
2021/03/25 03:27:49;;;;;;;50.43;27.90;;;7.00;99.90;;;;;;5110519;28;20445;-66
2021/03/25 03:30:22;;;;;;;50.53;26.73;;;7.00;99.90;;;;;;5108575;28;20477;-68
2021/03/25 03:32:55;;;;;;;56.67;28.80;;;7.00;99.90;;;;;;5108285;28;20492;-68
2021/03/25 03:35:27;;;;;;;56.40;29.20;;;7.10;99.90;;;;;;5111068;28;20552;-67
2021/03/25 03:37:58;;;;;;;41.80;24.53;;;7.10;99.90;;;;;;5124289;28;20850;-67
2021/03/25 03:40:27;;;;;;;54.93;28.90;;;7.10;99.90;;;;;;5117631;28;20542;-68
2021/03/25 03:42:59;;;;;;;49.50;28.60;;;7.20;99.90;;;;;;5118227;28;20539;-69
2021/03/25 03:45:28;;;;;;;60.37;29.47;;;7.20;99.90;;;;;;5118375;28;20505;-69
2021/03/25 03:48:01;;;;;;;45.10;25.90;;;7.20;99.90;;;;;;5123318;27;20467;-69
2021/03/25 03:50:36;;;;;;;50.87;27.47;;;7.20;99.90;;;;;;5118819;28;20528;-69
2021/03/25 03:53:03;;;;;;;55.67;30.73;;;7.20;99.90;;;;;;5119718;27;20535;-68
2021/03/25 03:55:30;;;;;;;54.53;27.77;;;7.20;99.90;;;;;;5118936;28;20447;-67
2021/03/25 03:58:09;;;;;;;56.77;28.97;;;7.20;99.90;;;;;;5109571;28;20532;-67
2021/03/25 04:00:40;;;;;;;54.70;28.33;;;7.30;99.90;;;;;;5116734;27;20961;-68
2021/03/25 04:03:18;;;;;;;54.90;29.47;;;7.30;99.90;;;;;;5115930;27;20531;-67
2021/03/25 04:05:51;;;;;;;53.43;28.70;;;7.30;99.90;;;;;;5118952;27;20527;-69
2021/03/25 04:08:22;;;;;;;52.73;29.00;;;7.30;99.90;;;;;;5127559;27;20941;-69
2021/03/25 04:10:57;;;;;;;57.10;30.27;;;7.40;99.90;;;;;;5125427;27;20455;-69
2021/03/25 04:13:27;;;;;;;58.00;28.70;;;7.40;99.90;;;;;;5115342;28;20524;-68
2021/03/25 04:15:55;;;;;;;58.23;30.13;;;7.40;99.90;;;;;;5118181;28;20441;-66
2021/03/25 04:18:29;;;;;;;53.60;28.80;;;7.50;99.90;;;;;;5133953;27;20533;-67
2021/03/25 04:20:59;;;;;;;49.63;27.50;;;7.50;99.90;;;;;;5132313;27;21010;-68
2021/03/25 04:23:29;;;;;;;52.20;30.27;;;7.50;99.90;;;;;;5118662;27;20552;-68
2021/03/25 04:26:03;;;;;;;51.93;30.13;;;7.50;99.90;;;;;;5118182;27;20485;-68
2021/03/25 04:28:34;;;;;;;54.07;31.33;;;7.50;99.90;;;;;;5124341;27;20483;-66
2021/03/25 04:31:00;;;;;;;49.57;28.90;;;7.60;99.90;;;;;;5123318;27;20440;-68
2021/03/25 04:33:29;;;;;;;55.40;30.80;;;7.60;99.90;;;;;;5127917;27;20445;-68
2021/03/25 04:35:58;;;;;;;60.33;32.97;;;7.60;99.90;;;;;;5118382;28;20481;-67
2021/03/25 04:38:27;;;;;;;56.17;30.33;;;7.50;99.90;;;;;;5114295;27;20931;-67
2021/03/25 04:40:56;;;;;;;54.50;29.30;;;7.50;99.90;;;;;;5123223;27;20485;-68
2021/03/25 04:43:24;;;;;;;61.43;34.20;;;7.50;99.90;;;;;;5114962;28;20498;-68
2021/03/25 04:45:57;;;;;;;55.10;30.50;;;7.50;99.90;;;;;;5117947;28;20441;-67
2021/03/25 04:48:29;;;;;;;56.63;31.87;;;7.40;99.90;;;;;;5117775;28;20543;-67
2021/03/25 04:51:03;;;;;;;53.73;30.47;;;7.40;99.90;;;;;;5105182;28;20453;-67
2021/03/25 04:53:32;;;;;;;54.33;30.47;;;7.40;99.90;;;;;;5099525;28;20465;-67
2021/03/25 04:56:00;;;;;;;55.17;30.30;;;7.40;99.90;;;;;;5110367;28;20451;-67
2021/03/25 04:58:30;;;;;;;54.07;30.10;;;7.30;99.90;;;;;;5110378;28;20499;-50
2021/03/25 05:01:04;;;;;;;38.67;20.23;;;7.40;99.90;;;;;;5106690;28;20477;-50
2021/03/25 05:03:31;;;;;;;47.00;25.00;;;9.50;99.90;;;;;;5114800;28;20446;-51
2021/03/25 05:05:58;;;;;;;54.20;25.67;;;10.30;99.90;;;;;;5113992;28;20448;-53
2021/03/25 05:08:29;;;;;;;46.80;24.43;;;10.80;99.90;;;;;;5113906;28;20475;-60
2021/03/25 05:11:01;;;;;;;45.77;25.53;;;11.00;99.90;;;;;;5108114;28;20799;-58
2021/03/25 05:13:30;;;;;;;48.37;25.43;;;11.30;99.90;;;;;;5104982;28;20946;-66
2021/03/25 05:16:20;;;;;;;48.50;28.03;;;11.40;99.90;;;;;;5113809;28;20494;-68
2021/03/25 05:18:56;;;;;;;49.63;28.47;;;10.80;99.90;;;;;;5114419;28;20809;-66
2021/03/25 05:21:32;;;;;;;48.90;28.20;;;10.30;99.90;;;;;;5103824;28;20568;-65
2021/03/25 05:24:06;;;;;;;53.13;28.00;;;9.80;99.90;;;;;;5105660;28;20438;-67
2021/03/25 05:26:40;;;;;;;52.03;29.33;;;9.30;99.90;;;;;;5113584;28;20449;-65
2021/03/25 05:29:09;;;;;;;51.50;28.33;;;9.00;99.90;;;;;;5101367;28;20536;-66
2021/03/25 05:31:38;;;;;;;49.50;28.67;;;8.70;99.90;;;;;;5102395;28;20537;-67
2021/03/25 05:34:08;;;;;;;56.67;30.83;;;8.40;99.90;;;;;;5107351;28;20450;-67
2021/03/25 05:36:36;;;;;;;52.50;29.10;;;8.30;99.90;;;;;;5096896;28;20931;-66
2021/03/25 05:39:04;;;;;;;50.03;30.60;;;8.10;99.90;;;;;;5113349;28;21142;-69
2021/03/25 05:41:39;;;;;;;51.63;28.50;;;8.00;99.90;;;;;;5102792;28;20478;-66
2021/03/25 05:44:29;;;;;;;53.77;31.70;;;7.90;99.90;;;;;;5108969;28;20449;-65
2021/03/25 05:47:08;;;;;;;56.23;30.70;;;7.80;99.90;;;;;;5091349;28;20537;-66
2021/03/25 05:49:40;;;;;;;50.73;31.07;;;7.80;99.90;;;;;;5111243;28;20524;-66
2021/03/25 05:52:33;;;;;;;65.43;32.13;;;7.80;99.90;;;;;;5111134;28;20532;-68
2021/03/25 05:55:11;;;;;;;49.47;28.30;;;7.80;99.90;;;;;;5099417;28;20461;-67
2021/03/25 05:57:45;;;;;;;53.40;29.70;;;7.80;99.90;;;;;;5111102;28;20487;-66
2021/03/25 06:00:27;;;;;;;51.57;31.20;;;7.80;99.90;;;;;;5113426;28;20445;-65
2021/03/25 06:02:59;;;;;;;51.03;28.47;;;7.80;99.90;;;;;;5113429;28;20536;-70
2021/03/25 06:05:26;;;;;;;52.10;31.40;;;7.80;99.90;;;;;;5113947;28;20520;-66
2021/03/25 06:08:14;;;;;;;59.43;29.27;;;7.90;99.90;;;;;;5125321;27;20440;-66
2021/03/25 06:10:55;;;;;;;47.90;29.17;;;7.90;99.90;;;;;;5097445;28;20445;-65
2021/03/25 06:13:32;;;;;;;51.77;29.37;;;8.00;99.90;;;;;;5120994;27;20459;-68
2021/03/25 06:16:20;;;;;;;54.70;31.13;;;8.00;99.90;;;;;;5116373;27;20528;-66
2021/03/25 06:19:17;;;;;;;52.40;28.80;;;8.00;99.90;;;;;;5112172;28;20447;-65
2021/03/25 06:22:03;;;;;;;51.50;30.00;;;8.20;99.90;;;;;;5058164;28;20541;-66
2021/03/25 06:25:11;;;;;;;49.67;28.87;;;8.30;99.90;;;;;;5113159;28;20529;-67
2021/03/25 06:27:53;;;;;;;51.60;29.23;;;8.30;99.90;;;;;;5036466;28;20529;-68
2021/03/25 06:30:23;;;;;;;51.53;28.80;;;8.40;99.90;;;;;;5127663;27;20465;-66
2021/03/25 06:32:56;;;;;;;51.20;29.87;;;8.50;99.90;;;;;;5118213;27;20977;-70
2021/03/25 06:35:27;;;;;;;48.50;25.80;;;8.60;99.90;;;;;;5112973;27;20451;-70
2021/03/25 06:38:00;;;;;;;53.57;29.23;;;8.70;99.90;;;;;;5112102;28;20533;-66
2021/03/25 06:40:31;;;;;;;47.33;28.10;;;8.70;99.90;;;;;;5112474;28;20974;-66
2021/03/25 06:43:05;;;;;;;50.80;29.07;;;8.90;99.90;;;;;;5112419;28;20480;-67
2021/03/25 06:45:36;;;;;;;48.57;26.90;;;8.90;99.90;;;;;;5112689;28;20544;-66
2021/03/25 06:48:05;;;;;;;47.30;29.33;;;9.00;99.90;;;;;;5111896;28;20441;-66
2021/03/25 06:50:36;;;;;;;53.33;29.40;;;9.20;99.90;;;;;;5101296;28;20577;-64
2021/03/25 06:53:19;;;;;;;56.00;30.80;;;9.30;99.90;;;;;;5106186;27;20461;-67
2021/03/25 06:55:46;;;;;;;55.87;31.13;;;9.50;99.90;;;;;;5104817;27;20526;-64
2021/03/25 06:58:16;;;;;;;55.50;29.50;;;9.70;99.90;;;;;;5104660;27;20540;-67
2021/03/25 07:00:52;;;;;;;49.33;29.23;;;9.90;99.90;;;;;;5114388;27;20456;-68
2021/03/25 07:03:20;;;;;;;50.90;28.73;;;10.10;99.90;;;;;;5109022;28;20503;-66
2021/03/25 07:05:48;;;;;;;52.13;29.67;;;10.30;99.90;;;;;;5110085;28;20521;-65
2021/03/25 07:08:19;;;;;;;54.23;28.60;;;10.50;99.90;;;;;;5111057;28;20453;-65
2021/03/25 07:10:50;;;;;;;55.80;32.30;;;10.70;99.90;;;;;;5107157;28;20449;-67
2021/03/25 07:13:20;;;;;;;56.17;33.37;;;10.70;99.90;;;;;;5107548;28;20492;-66
2021/03/25 07:15:47;;;;;;;64.13;33.60;;;10.90;99.90;;;;;;5110443;28;20536;-66
2021/03/25 07:18:28;;;;;;;64.50;36.57;;;11.00;99.90;;;;;;5111119;27;20537;-63
2021/03/25 07:21:26;;;;;;;54.27;32.70;;;11.20;99.90;;;;;;5111407;28;20453;-69
2021/03/25 07:23:56;;;;;;;63.00;32.90;;;11.30;99.90;;;;;;5109127;28;20449;-67
2021/03/25 07:26:29;;;;;;;56.93;33.23;;;11.60;99.90;;;;;;5108545;28;20445;-68
2021/03/25 07:29:13;;;;;;;56.67;34.47;;;11.70;99.90;;;;;;5110189;28;20435;-66
2021/03/25 07:31:42;;;;;;;51.90;31.47;;;11.70;99.90;;;;;;5094489;28;20200;-66
2021/03/25 07:34:09;;;;;;;49.97;29.90;;;12.20;99.90;;;;;;5107751;28;20449;-68
2021/03/25 07:36:51;;;;;;;50.60;27.23;;;12.40;99.90;;;;;;5114538;28;20982;-66
2021/03/25 07:39:24;;;;;;;47.10;25.40;;;12.20;99.90;;;;;;5109784;28;20891;-66
2021/03/25 07:41:53;;;;;;;51.07;30.03;;;12.50;99.90;;;;;;5102443;28;20481;-66
2021/03/25 07:44:33;;;;;;;46.10;26.80;;;12.40;99.90;;;;;;5108138;28;20862;-66
2021/03/25 07:47:02;;;;;;;50.00;28.53;;;12.60;99.90;;;;;;5104454;28;20492;-66
2021/03/25 07:49:30;;;;;;;52.83;31.67;;;12.50;99.90;;;;;;5114013;28;20516;-67
2021/03/25 07:52:00;;;;;;;46.37;27.03;;;12.60;99.90;;;;;;5110286;28;20500;-67
2021/03/25 07:54:32;;;;;;;52.70;27.57;;;12.50;99.90;;;;;;5110030;28;20496;-65
2021/03/25 07:57:11;;;;;;;48.63;25.90;;;12.80;99.90;;;;;;5110443;28;20445;-68
2021/03/25 07:59:41;;;;;;;44.57;26.70;;;12.80;99.90;;;;;;5111082;28;20475;-68
2021/03/25 08:02:25;;;;;;;48.83;29.67;;;12.90;99.90;;;;;;5103117;28;20531;-67
2021/03/25 08:04:52;;;;;;;51.67;29.20;;;12.90;99.90;;;;;;5094454;28;20441;-64
2021/03/25 08:07:20;;;;;;;51.77;27.60;;;13.00;99.90;;;;;;5106863;28;20449;-67
2021/03/25 08:09:51;;;;;;;48.33;27.40;;;13.10;99.90;;;;;;5108133;28;20823;-66
2021/03/25 08:12:30;;;;;;;43.47;27.23;;;13.40;99.90;;;;;;5100676;28;21118;-67
2021/03/25 08:15:08;;;;;;;42.60;26.60;;;13.60;99.90;;;;;;5092938;28;20544;-66
2021/03/25 08:17:42;;;;;;;45.57;26.37;;;13.80;99.90;;;;;;5106434;28;20451;-68
2021/03/25 08:20:18;;;;;;;49.37;27.63;;;13.90;99.90;;;;;;5107949;28;20440;-68
2021/03/25 08:22:58;;;;;;;44.67;26.53;;;13.80;99.90;;;;;;5102380;28;20488;-66
2021/03/25 08:25:39;;;;;;;48.10;28.83;;;13.90;99.90;;;;;;5102217;28;20446;-66
2021/03/25 08:28:18;;;;;;;46.40;27.30;;;13.60;99.90;;;;;;5129338;27;20872;-67
2021/03/25 08:31:02;;;;;;;46.33;26.63;;;13.80;99.90;;;;;;5101517;28;20536;-67
2021/03/25 08:33:53;;;;;;;44.73;28.23;;;14.00;99.90;;;;;;5108405;28;20450;-67
2021/03/25 08:36:25;;;;;;;46.53;29.87;;;13.90;99.90;;;;;;5106688;28;20520;-66
2021/03/25 08:39:20;;;;;;;50.70;30.30;;;13.80;99.90;;;;;;5101529;28;20463;-67
2021/03/25 08:41:52;;;;;;;46.57;28.83;;;13.90;99.90;;;;;;5109783;27;20559;-66
2021/03/25 08:44:28;;;;;;;44.10;26.50;;;13.40;99.90;;;;;;5110925;28;21012;-68
2021/03/25 08:46:58;;;;;;;44.73;29.73;;;13.80;99.90;;;;;;5105707;28;20448;-67
2021/03/25 08:49:31;;;;;;;61.77;30.67;;;14.20;99.90;;;;;;5109880;28;20453;-67
2021/03/25 08:51:59;;;;;;;45.10;27.07;;;13.90;99.90;;;;;;5104519;27;20544;-70
2021/03/25 08:54:32;;;;;;;48.53;29.70;;;13.70;99.90;;;;;;5101096;27;21029;-68
2021/03/25 08:57:04;;;;;;;47.73;28.80;;;13.60;99.90;;;;;;5111843;28;20541;-70
2021/03/25 08:59:35;;;;;;;43.50;26.17;;;13.80;99.90;;;;;;5109170;28;20912;-69
2021/03/25 09:02:04;;;;;;;56.57;31.27;;;14.10;99.90;;;;;;5104864;28;20519;-69
2021/03/25 09:04:34;;;;;;;47.20;28.67;;;14.10;99.90;;;;;;5112257;28;20528;-70
2021/03/25 09:07:04;;;;;;;42.37;26.73;;;14.20;99.90;;;;;;5110442;28;20826;-69
2021/03/25 09:09:39;;;;;;;44.23;26.27;;;14.00;99.90;;;;;;5101458;28;20533;-69
2021/03/25 09:12:15;;;;;;;39.60;26.50;;;14.30;99.90;;;;;;5097219;28;20549;-67
2021/03/25 09:14:42;;;;;;;46.30;28.27;;;14.60;99.90;;;;;;5113810;27;20445;-69
2021/03/25 09:17:12;;;;;;;41.60;25.90;;;14.80;99.90;;;;;;5100511;28;21021;-70
2021/03/25 09:19:41;;;;;;;47.07;29.50;;;14.90;99.90;;;;;;5102167;28;20530;-67
2021/03/25 09:22:08;;;;;;;41.10;28.67;;;15.10;99.90;;;;;;5102368;28;20520;-68
2021/03/25 09:24:35;;;;;;;40.70;27.77;;;15.30;99.90;;;;;;5114130;28;20452;-67
2021/03/25 09:27:06;;;;;;;41.80;29.13;;;15.70;99.90;;;;;;5113332;28;20446;-69
2021/03/25 09:29:50;;;;;;;43.60;29.93;;;15.90;99.90;;;;;;5108278;28;20470;-67
2021/03/25 09:32:36;;;;;;;44.50;28.23;;;16.10;99.90;;;;;;5106088;28;20441;-69
2021/03/25 09:35:51;;;;;;;41.67;28.00;;;16.40;99.90;;;;;;5113321;28;20445;-68
2021/03/25 09:38:30;;;;;;;43.53;29.50;;;16.70;99.90;;;;;;5113126;28;20866;-67
2021/03/25 09:40:57;;;;;;;43.07;29.00;;;16.60;99.90;;;;;;5110866;28;20460;-68
2021/03/25 09:43:38;;;;;;;51.47;32.80;;;16.20;99.90;;;;;;5104108;28;20950;-69
2021/03/25 09:46:39;;;;;;;50.53;31.67;;;16.10;99.90;;;;;;5111674;28;20520;-67
2021/03/25 09:49:27;;;;;;;46.07;31.07;;;15.50;99.90;;;;;;5104138;28;20454;-68
2021/03/25 09:52:28;;;;;;;49.80;30.67;;;15.90;99.90;;;;;;5093001;28;20525;-69
2021/03/25 09:55:17;;;;;;;52.57;32.47;;;16.10;99.90;;;;;;5100033;28;20468;-67
2021/03/25 09:57:44;;;;;;;43.23;30.43;;;16.70;99.90;;;;;;5113106;28;20469;-66
2021/03/25 10:00:13;;;;;;;44.77;30.80;;;17.10;99.90;;;;;;5112994;28;20556;-68
2021/03/25 10:02:54;;;;;;;46.83;30.60;;;17.10;99.90;;;;;;5112649;28;20522;-65
2021/03/25 10:05:37;;;;;;;49.10;30.70;;;17.40;99.90;;;;;;5113492;28;20472;-66
2021/03/25 10:08:20;;;;;;;41.67;29.20;;;17.50;99.90;;;;;;5112619;28;20471;-64
2021/03/25 10:10:50;;;;;;;50.03;29.83;;;17.90;99.90;;;;;;5112279;28;20484;-64
2021/03/25 10:13:36;;;;;;;36.53;26.77;;;18.50;99.90;;;;;;5112566;28;20532;-63
2021/03/25 10:16:05;;;;;;;37.97;28.60;;;20.10;99.90;;;;;;5112123;28;21066;-67
2021/03/25 10:18:54;;;;;;;37.03;26.93;;;21.90;99.90;;;;;;5108092;27;20536;-65
2021/03/25 10:21:59;;;;;;;44.80;29.47;;;23.70;99.90;;;;;;5096728;27;20540;-67
2021/03/25 10:24:30;;;;;;;38.33;27.57;;;23.60;96.60;;;;;;5094601;28;20458;-64
2021/03/25 10:27:06;;;;;;;48.33;36.33;;;25.00;94.20;;;;;;5103580;28;20533;-71
2021/03/25 10:29:35;;;;;;;33.97;28.93;;;25.30;91.70;;;;;;5105941;28;20885;-70
2021/03/25 10:32:04;;;;;;;39.30;31.70;;;26.20;85.80;;;;;;5104648;28;20453;-73
2021/03/25 10:34:33;;;;;;;35.63;29.33;;;26.50;81.70;;;;;;5110724;28;20565;-66
2021/03/25 10:37:05;;;;;;;37.70;28.60;;;26.40;77.30;;;;;;5115708;27;20537;-67
2021/03/25 10:39:37;;;;;;;38.60;30.70;;;26.70;76.70;;;;;;5112122;27;20520;-66
2021/03/25 10:42:22;;;;;;;36.83;30.70;;;26.50;76.00;;;;;;5110725;28;20967;-66
2021/03/25 10:44:49;;;;;;;36.37;26.10;;;27.50;69.50;;;;;;5092286;28;20541;-51
2021/03/25 10:47:19;;;;;;;31.03;23.33;;;28.10;71.30;;;;;;5108428;28;20445;-50
2021/03/25 10:49:49;;;;;;;39.90;33.13;;;28.30;71.60;;;;;;5111461;28;20447;-49
2021/03/25 10:52:18;;;;;;;36.27;30.10;;;28.80;65.70;;;;;;5101285;27;20488;-61
2021/03/25 10:54:46;;;;;;;37.67;30.37;;;28.50;65.70;;;;;;5106434;27;20548;-60
2021/03/25 10:57:20;;;;;;;37.17;32.87;;;29.30;64.20;;;;;;5110901;28;20450;-61
2021/03/25 10:59:53;;;;;;;36.83;31.70;;;29.70;60.30;;;;;;5107755;27;20958;-60
2021/03/25 11:02:23;;;;;;;43.40;37.53;;;30.00;57.90;;;;;;5111691;27;20520;-61
2021/03/25 11:05:01;;;;;;;43.67;37.83;;;29.30;58.20;;;;;;5119448;27;20816;-60
2021/03/25 11:07:28;;;;;;;42.20;35.50;;;28.90;60.30;;;;;;5105515;28;21011;-60
2021/03/25 11:09:56;;;;;;;40.23;32.50;;;28.40;59.10;;;;;;5109625;28;21206;-61
2021/03/25 11:12:25;;;;;;;40.27;30.50;;;30.00;58.90;;;;;;5100949;28;20457;-60
2021/03/25 11:14:57;;;;;;;45.60;39.20;;;30.50;57.70;;;;;;5109022;28;20443;-61
2021/03/25 11:17:28;;;;;;;46.33;37.80;;;29.90;57.20;;;;;;5105025;27;20548;-59
2021/03/25 11:19:59;;;;;;;46.23;41.13;;;29.30;56.60;;;;;;5099939;27;20454;-59
2021/03/25 11:22:26;;;;;;;48.73;39.93;;;30.20;56.20;;;;;;5109450;28;20484;-60
2021/03/25 11:24:53;;;;;;;44.80;39.53;;;29.00;54.60;;;;;;5105256;28;20459;-60
2021/03/25 11:27:22;;;;;;;44.73;35.37;;;28.10;56.60;;;;;;5106346;28;20538;-60
2021/03/25 11:30:00;;;;;;;42.70;34.03;;;27.30;58.20;;;;;;5109133;28;20537;-61
2021/03/25 11:32:34;;;;;;;39.63;33.73;;;27.90;56.10;;;;;;5104895;28;20893;-62
2021/03/25 11:35:20;;;;;;;44.70;36.57;;;28.90;55.60;;;;;;5111308;28;20503;-62
2021/03/25 11:37:47;;;;;;;42.87;34.67;;;27.60;58.50;;;;;;5116173;28;20453;-61
2021/03/25 11:40:16;;;;;;;39.03;34.93;;;28.40;58.20;;;;;;5110311;28;20479;-61
2021/03/25 11:42:45;;;;;;;34.60;30.90;;;27.90;56.30;;;;;;5109990;28;20503;-63
2021/03/25 11:45:39;;;;;;;36.67;29.63;;;27.30;59.10;;;;;;5110812;28;20818;-62
2021/03/25 11:48:20;;;;;;;36.27;29.40;;;28.20;56.50;;;;;;5110408;28;20445;-61
2021/03/25 11:50:48;;;;;;;33.20;28.50;;;29.30;54.80;;;;;;5106609;28;20452;-62
2021/03/25 11:53:37;;;;;;;33.00;29.37;;;28.00;56.70;;;;;;5107603;28;20545;-62
2021/03/25 11:56:06;;;;;;;30.03;26.10;;;28.80;58.10;;;;;;5108771;28;20448;-59
2021/03/25 11:58:33;;;;;;;34.50;30.37;;;30.20;55.70;;;;;;5107043;28;20448;-62
2021/03/25 12:01:07;;;;;;;33.47;28.57;;;29.30;54.30;;;;;;5107942;28;20449;-59
2021/03/25 12:03:46;;;;;;;37.40;31.93;;;28.10;56.30;;;;;;5113962;28;20480;-59
2021/03/25 12:06:18;;;;;;;36.70;30.17;;;26.00;59.20;;;;;;5114171;28;20495;-63
2021/03/25 12:08:45;;;;;;;36.43;31.47;;;26.20;58.90;;;;;;5114228;28;20917;-60
2021/03/25 12:11:13;;;;;;;38.90;30.73;;;25.80;57.70;;;;;;5107293;28;20445;-60
2021/03/25 12:13:40;;;;;;;32.30;27.47;;;27.00;57.90;;;;;;5112316;28;20448;-59
2021/03/25 12:16:09;;;;;;;36.60;31.47;;;26.90;58.60;;;;;;5110468;27;20485;-60
2021/03/25 12:18:38;;;;;;;34.17;28.47;;;25.00;58.60;;;;;;5104112;28;20484;-61
2021/03/25 12:21:07;;;;;;;35.27;26.67;;;24.80;58.80;;;;;;5103446;28;20449;-60
2021/03/25 12:23:36;;;;;;;30.63;24.37;;;26.20;58.30;;;;;;5113102;28;20511;-61
2021/03/25 12:26:06;;;;;;;30.83;25.20;;;27.70;56.70;;;;;;5112563;28;20453;-60
2021/03/25 12:28:35;;;;;;;27.97;23.00;;;29.10;57.50;;;;;;5124792;27;21155;-60
2021/03/25 12:31:01;;;;;;;27.60;22.50;;;30.60;56.30;;;;;;5117830;27;20972;-60
2021/03/25 12:33:31;;;;;;;28.87;25.77;;;31.30;55.70;;;;;;5113990;28;20449;-62
2021/03/25 12:35:59;;;;;;;25.53;22.77;;;30.40;54.00;;;;;;5114012;28;20485;-60
2021/03/25 12:38:26;;;;;;;25.10;20.83;;;29.90;55.50;;;;;;5113562;28;21094;-62
2021/03/25 12:40:53;;;;;;;27.17;24.07;;;30.60;54.00;;;;;;5113688;28;20449;-63
2021/03/25 12:43:23;;;;;;;26.17;21.50;;;29.00;53.60;;;;;;5110644;27;20481;-61
2021/03/25 12:45:55;;;;;;;26.67;23.27;;;29.00;53.40;;;;;;5111301;28;20449;-60
2021/03/25 12:48:23;;;;;;;26.80;21.43;;;27.30;55.80;;;;;;5121435;27;20882;-62
2021/03/25 12:50:51;;;;;;;19.10;15.70;;;28.60;56.70;;;;;;5091246;28;20539;-62
2021/03/25 12:53:18;;;;;;;17.37;15.53;;;29.00;53.00;;;;;;5124790;22;20914;-59
2021/03/25 12:55:44;;;;;;;18.77;15.90;;;29.30;52.70;;;;;;5119554;27;20504;-60
2021/03/25 12:58:18;;;;;;;25.27;19.37;;;30.80;51.90;;;;;;5119133;27;20488;-60
2021/03/25 13:00:44;;;;;;;22.37;20.00;;;30.30;51.50;;;;;;5112529;27;20445;-61
2021/03/25 13:03:11;;;;;;;21.10;18.10;;;29.20;51.50;;;;;;5109453;28;21028;-61